sensor_id;sensor_type;location;lat;lon;timestamp;pressure;altitude;pressure_sealevel;temperature;humidity
28267;BME280;15525;45.568;5.448;2023-06-10T00:01:45;97685.41;;;24.01;60.94
28267;BME280;15525;45.568;5.448;2023-06-10T00:04:13;97677.47;;;23.96;61.07
28267;BME280;15525;45.568;5.448;2023-06-10T00:06:40;97676.75;;;23.99;60.89
28267;BME280;15525;45.568;5.448;2023-06-10T00:09:06;97679.78;;;23.94;61.32
28267;BME280;15525;45.568;5.448;2023-06-10T00:11:36;97674.16;;;23.87;61.11
28267;BME280;15525;45.568;5.448;2023-06-10T00:14:02;97680.06;;;23.89;61.24
28267;BME280;15525;45.568;5.448;2023-06-10T00:16:27;97676.53;;;23.89;61.20
28267;BME280;15525;45.568;5.448;2023-06-10T00:18:53;97676.47;;;23.85;61.35
28267;BME280;15525;45.568;5.448;2023-06-10T00:21:21;97674.00;;;23.77;61.51
28267;BME280;15525;45.568;5.448;2023-06-10T00:23:47;97659.03;;;23.71;61.57
28267;BME280;15525;45.568;5.448;2023-06-10T00:26:12;97659.09;;;23.74;61.35
28267;BME280;15525;45.568;5.448;2023-06-10T00:28:37;97629.75;;;23.49;61.36
28267;BME280;15525;45.568;5.448;2023-06-10T00:31:03;97651.06;;;23.62;61.55
28267;BME280;15525;45.568;5.448;2023-06-10T00:33:29;97656.72;;;23.73;61.50
28267;BME280;15525;45.568;5.448;2023-06-10T00:35:55;97650.53;;;23.76;61.37
28267;BME280;15525;45.568;5.448;2023-06-10T00:38:20;97655.63;;;23.77;61.40
28267;BME280;15525;45.568;5.448;2023-06-10T00:40:46;97660.91;;;23.67;61.32
28267;BME280;15525;45.568;5.448;2023-06-10T00:43:11;97672.94;;;23.62;61.81
28267;BME280;15525;45.568;5.448;2023-06-10T00:45:37;97671.00;;;23.63;61.65
28267;BME280;15525;45.568;5.448;2023-06-10T00:48:03;97661.94;;;23.59;61.71
28267;BME280;15525;45.568;5.448;2023-06-10T00:50:29;97661.69;;;23.67;61.67
28267;BME280;15525;45.568;5.448;2023-06-10T00:52:56;97668.06;;;23.75;61.51
28267;BME280;15525;45.568;5.448;2023-06-10T00:55:22;97652.91;;;23.77;61.21
28267;BME280;15525;45.568;5.448;2023-06-10T00:57:49;97668.63;;;23.84;61.41
28267;BME280;15525;45.568;5.448;2023-06-10T01:00:16;97640.19;;;23.66;61.61
28267;BME280;15525;45.568;5.448;2023-06-10T01:02:42;97650.44;;;23.50;61.63
28267;BME280;15525;45.568;5.448;2023-06-10T01:05:08;97667.25;;;23.52;62.06
28267;BME280;15525;45.568;5.448;2023-06-10T01:07:43;97668.00;;;23.49;62.22
28267;BME280;15525;45.568;5.448;2023-06-10T01:13:09;97667.53;;;23.66;61.60
28267;BME280;15525;45.568;5.448;2023-06-10T01:15:37;97650.56;;;23.57;61.88
28267;BME280;15525;45.568;5.448;2023-06-10T01:18:08;97661.50;;;23.57;61.95
28267;BME280;15525;45.568;5.448;2023-06-10T01:20:35;97659.69;;;23.64;61.70
28267;BME280;15525;45.568;5.448;2023-06-10T01:23:05;97658.97;;;23.67;61.32
28267;BME280;15525;45.568;5.448;2023-06-10T01:25:31;97639.88;;;23.48;61.35
28267;BME280;15525;45.568;5.448;2023-06-10T01:28:11;97660.28;;;23.54;61.59
28267;BME280;15525;45.568;5.448;2023-06-10T01:30:59;97655.25;;;23.56;61.31
28267;BME280;15525;45.568;5.448;2023-06-10T01:33:31;97652.22;;;23.61;60.81
28267;BME280;15525;45.568;5.448;2023-06-10T01:35:59;97670.50;;;23.80;60.49
28267;BME280;15525;45.568;5.448;2023-06-10T01:38:27;97662.44;;;23.87;60.39
28267;BME280;15525;45.568;5.448;2023-06-10T01:40:55;97661.59;;;23.83;60.54
28267;BME280;15525;45.568;5.448;2023-06-10T01:43:21;97647.38;;;23.74;60.60
28267;BME280;15525;45.568;5.448;2023-06-10T01:45:46;97648.63;;;23.80;60.34
28267;BME280;15525;45.568;5.448;2023-06-10T01:48:12;97654.84;;;23.77;60.73
28267;BME280;15525;45.568;5.448;2023-06-10T01:50:38;97656.22;;;23.67;61.17
28267;BME280;15525;45.568;5.448;2023-06-10T01:53:04;97661.34;;;23.69;61.25
28267;BME280;15525;45.568;5.448;2023-06-10T01:55:30;97637.19;;;23.52;61.25
28267;BME280;15525;45.568;5.448;2023-06-10T01:57:56;97649.78;;;23.56;61.36
28267;BME280;15525;45.568;5.448;2023-06-10T02:00:21;97657.75;;;23.65;61.30
28267;BME280;15525;45.568;5.448;2023-06-10T02:02:47;97661.44;;;23.76;61.12
28267;BME280;15525;45.568;5.448;2023-06-10T02:05:12;97657.50;;;23.73;61.00
28267;BME280;15525;45.568;5.448;2023-06-10T02:07:37;97647.97;;;23.64;61.26
28267;BME280;15525;45.568;5.448;2023-06-10T02:10:04;97650.25;;;23.62;61.30
28267;BME280;15525;45.568;5.448;2023-06-10T02:12:30;97653.56;;;23.71;60.95
28267;BME280;15525;45.568;5.448;2023-06-10T02:14:55;97655.97;;;23.76;60.86
28267;BME280;15525;45.568;5.448;2023-06-10T02:17:20;97664.63;;;23.78;60.92
28267;BME280;15525;45.568;5.448;2023-06-10T02:19:46;97664.72;;;23.62;60.71
28267;BME280;15525;45.568;5.448;2023-06-10T02:22:19;97650.50;;;23.53;61.24
28267;BME280;15525;45.568;5.448;2023-06-10T02:24:44;97662.97;;;23.51;61.38
28267;BME280;15525;45.568;5.448;2023-06-10T02:27:09;97662.72;;;23.59;61.37
28267;BME280;15525;45.568;5.448;2023-06-10T02:29:35;97664.69;;;23.59;61.40
28267;BME280;15525;45.568;5.448;2023-06-10T02:32:02;97662.34;;;23.38;61.58
28267;BME280;15525;45.568;5.448;2023-06-10T02:34:27;97667.84;;;23.42;61.97
28267;BME280;15525;45.568;5.448;2023-06-10T02:36:53;97667.63;;;23.50;61.84
28267;BME280;15525;45.568;5.448;2023-06-10T02:39:19;97670.19;;;23.62;61.37
28267;BME280;15525;45.568;5.448;2023-06-10T02:41:44;97668.53;;;23.58;61.60
28267;BME280;15525;45.568;5.448;2023-06-10T02:44:10;97671.66;;;23.56;61.69
28267;BME280;15525;45.568;5.448;2023-06-10T02:46:35;97663.59;;;23.44;61.60
28267;BME280;15525;45.568;5.448;2023-06-10T02:49:00;97672.31;;;23.50;61.70
28267;BME280;15525;45.568;5.448;2023-06-10T02:51:26;97664.72;;;23.40;61.54
28267;BME280;15525;45.568;5.448;2023-06-10T02:53:52;97644.22;;;23.30;61.54
28267;BME280;15525;45.568;5.448;2023-06-10T02:56:18;97647.94;;;23.22;61.61
28267;BME280;15525;45.568;5.448;2023-06-10T02:58:44;97662.97;;;23.32;61.62
28267;BME280;15525;45.568;5.448;2023-06-10T03:01:09;97670.16;;;23.40;61.62
28267;BME280;15525;45.568;5.448;2023-06-10T03:03:35;97668.22;;;23.40;61.53
28267;BME280;15525;45.568;5.448;2023-06-10T03:06:02;97645.94;;;23.38;61.39
28267;BME280;15525;45.568;5.448;2023-06-10T03:08:28;97676.25;;;23.52;61.46
28267;BME280;15525;45.568;5.448;2023-06-10T03:10:53;97671.88;;;23.29;61.65
28267;BME280;15525;45.568;5.448;2023-06-10T03:13:19;97674.31;;;23.15;62.07
28267;BME280;15525;45.568;5.448;2023-06-10T03:15:44;97646.72;;;23.01;62.25
28267;BME280;15525;45.568;5.448;2023-06-10T03:18:11;97666.75;;;23.08;62.41
28267;BME280;15525;45.568;5.448;2023-06-10T03:20:36;97679.97;;;23.22;62.27
28267;BME280;15525;45.568;5.448;2023-06-10T03:23:04;97670.66;;;23.26;62.50
28267;BME280;15525;45.568;5.448;2023-06-10T03:25:30;97655.00;;;23.23;61.94
28267;BME280;15525;45.568;5.448;2023-06-10T03:27:55;97635.88;;;23.23;61.67
28267;BME280;15525;45.568;5.448;2023-06-10T03:30:21;97663.66;;;23.48;61.58
28267;BME280;15525;45.568;5.448;2023-06-10T03:32:46;97663.25;;;23.46;61.56
28267;BME280;15525;45.568;5.448;2023-06-10T03:35:11;97664.88;;;23.50;61.62
28267;BME280;15525;45.568;5.448;2023-06-10T03:37:37;97664.69;;;23.59;61.55
28267;BME280;15525;45.568;5.448;2023-06-10T03:40:03;97645.53;;;23.59;61.33
28267;BME280;15525;45.568;5.448;2023-06-10T03:42:32;97662.81;;;23.63;61.33
28267;BME280;15525;45.568;5.448;2023-06-10T03:44:58;97657.19;;;23.56;61.59
28267;BME280;15525;45.568;5.448;2023-06-10T03:47:23;97654.81;;;23.54;61.55
28267;BME280;15525;45.568;5.448;2023-06-10T03:49:48;97662.66;;;23.56;61.57
28267;BME280;15525;45.568;5.448;2023-06-10T03:52:14;97664.16;;;23.53;61.69
28267;BME280;15525;45.568;5.448;2023-06-10T03:54:39;97670.56;;;23.61;61.41
28267;BME280;15525;45.568;5.448;2023-06-10T03:57:05;97655.63;;;23.55;61.71
28267;BME280;15525;45.568;5.448;2023-06-10T03:59:31;97650.75;;;23.45;61.86
28267;BME280;15525;45.568;5.448;2023-06-10T04:01:56;97666.59;;;23.58;61.79
28267;BME280;15525;45.568;5.448;2023-06-10T04:04:23;97663.38;;;23.53;62.06
28267;BME280;15525;45.568;5.448;2023-06-10T04:06:48;97656.34;;;23.52;62.05
28267;BME280;15525;45.568;5.448;2023-06-10T04:09:14;97674.03;;;23.39;62.31
28267;BME280;15525;45.568;5.448;2023-06-10T04:11:41;97661.69;;;23.45;62.25
28267;BME280;15525;45.568;5.448;2023-06-10T04:14:07;97674.97;;;23.46;62.22
28267;BME280;15525;45.568;5.448;2023-06-10T04:16:33;97664.78;;;23.43;62.55
28267;BME280;15525;45.568;5.448;2023-06-10T04:18:59;97678.13;;;23.48;62.41
28267;BME280;15525;45.568;5.448;2023-06-10T04:21:26;97668.47;;;23.54;62.35
28267;BME280;15525;45.568;5.448;2023-06-10T04:23:51;97676.81;;;23.61;62.36
28267;BME280;15525;45.568;5.448;2023-06-10T04:26:17;97672.00;;;23.55;62.42
28267;BME280;15525;45.568;5.448;2023-06-10T04:28:43;97690.13;;;23.63;62.35
28267;BME280;15525;45.568;5.448;2023-06-10T04:31:08;97679.63;;;23.65;62.13
28267;BME280;15525;45.568;5.448;2023-06-10T04:33:35;97663.16;;;23.61;62.11
28267;BME280;15525;45.568;5.448;2023-06-10T04:36:01;97683.63;;;23.71;62.17
28267;BME280;15525;45.568;5.448;2023-06-10T04:38:26;97669.09;;;23.67;61.94
28267;BME280;15525;45.568;5.448;2023-06-10T04:40:52;97679.06;;;23.78;61.79
28267;BME280;15525;45.568;5.448;2023-06-10T04:43:17;97679.94;;;23.82;61.96
28267;BME280;15525;45.568;5.448;2023-06-10T04:45:43;97681.88;;;23.82;61.92
28267;BME280;15525;45.568;5.448;2023-06-10T04:48:10;97681.88;;;23.82;62.03
28267;BME280;15525;45.568;5.448;2023-06-10T04:50:36;97670.34;;;23.69;62.19
28267;BME280;15525;45.568;5.448;2023-06-10T04:53:01;97682.50;;;23.72;62.29
28267;BME280;15525;45.568;5.448;2023-06-10T04:55:26;97677.03;;;23.72;62.44
28267;BME280;15525;45.568;5.448;2023-06-10T04:57:52;97673.91;;;23.73;62.27
28267;BME280;15525;45.568;5.448;2023-06-10T05:00:17;97681.59;;;23.87;62.24
28267;BME280;15525;45.568;5.448;2023-06-10T05:02:43;97687.41;;;23.85;62.23
28267;BME280;15525;45.568;5.448;2023-06-10T05:05:10;97680.06;;;23.89;62.19
28267;BME280;15525;45.568;5.448;2023-06-10T05:07:35;97694.38;;;24.02;62.00
28267;BME280;15525;45.568;5.448;2023-06-10T05:10:00;97684.28;;;24.06;62.01
28267;BME280;15525;45.568;5.448;2023-06-10T05:12:26;97677.19;;;24.01;61.92
28267;BME280;15525;45.568;5.448;2023-06-10T05:14:52;97683.75;;;23.97;61.94
28267;BME280;15525;45.568;5.448;2023-06-10T05:17:17;97655.28;;;23.79;62.09
28267;BME280;15525;45.568;5.448;2023-06-10T05:19:43;97668.69;;;23.87;62.23
28267;BME280;15525;45.568;5.448;2023-06-10T05:22:09;97694.75;;;24.00;62.21
28267;BME280;15525;45.568;5.448;2023-06-10T05:24:34;97697.91;;;24.02;62.12
28267;BME280;15525;45.568;5.448;2023-06-10T05:26:59;97684.53;;;23.97;62.18
28267;BME280;15525;45.568;5.448;2023-06-10T05:29:25;97673.22;;;23.99;62.05
28267;BME280;15525;45.568;5.448;2023-06-10T05:31:51;97683.56;;;24.09;61.75
28267;BME280;15525;45.568;5.448;2023-06-10T05:34:16;97682.81;;;24.12;61.83
28267;BME280;15525;45.568;5.448;2023-06-10T05:36:42;97673.84;;;24.11;61.73
28267;BME280;15525;45.568;5.448;2023-06-10T05:39:08;97681.25;;;24.11;61.89
28267;BME280;15525;45.568;5.448;2023-06-10T05:41:34;97680.16;;;24.15;61.87
28267;BME280;15525;45.568;5.448;2023-06-10T05:43:59;97679.47;;;24.22;61.81
28267;BME280;15525;45.568;5.448;2023-06-10T05:46:24;97678.78;;;24.28;61.88
28267;BME280;15525;45.568;5.448;2023-06-10T05:48:50;97681.28;;;24.37;61.61
28267;BME280;15525;45.568;5.448;2023-06-10T05:51:15;97668.66;;;24.55;61.27
28267;BME280;15525;45.568;5.448;2023-06-10T05:53:41;97684.53;;;24.68;61.01
28267;BME280;15525;45.568;5.448;2023-06-10T05:56:06;97680.63;;;24.69;61.18
28267;BME280;15525;45.568;5.448;2023-06-10T05:58:32;97677.53;;;24.71;61.28
28267;BME280;15525;45.568;5.448;2023-06-10T06:00:57;97679.53;;;24.74;61.05
28267;BME280;15525;45.568;5.448;2023-06-10T06:03:22;97676.56;;;24.86;60.86
28267;BME280;15525;45.568;5.448;2023-06-10T06:05:48;97686.00;;;24.88;60.84
28267;BME280;15525;45.568;5.448;2023-06-10T06:08:13;97688.75;;;24.88;60.83
28267;BME280;15525;45.568;5.448;2023-06-10T06:10:38;97683.38;;;24.99;60.70
28267;BME280;15525;45.568;5.448;2023-06-10T06:13:04;97678.31;;;24.97;60.45
28267;BME280;15525;45.568;5.448;2023-06-10T06:15:29;97665.06;;;25.03;60.23
28267;BME280;15525;45.568;5.448;2023-06-10T06:17:55;97674.94;;;25.11;60.18
28267;BME280;15525;45.568;5.448;2023-06-10T06:20:21;97677.16;;;25.28;59.88
28267;BME280;15525;45.568;5.448;2023-06-10T06:22:47;97691.38;;;25.37;59.85
28267;BME280;15525;45.568;5.448;2023-06-10T06:25:12;97688.34;;;25.49;59.65
28267;BME280;15525;45.568;5.448;2023-06-10T06:27:38;97686.56;;;25.63;59.59
28267;BME280;15525;45.568;5.448;2023-06-10T06:30:04;97682.25;;;25.62;59.73
28267;BME280;15525;45.568;5.448;2023-06-10T06:32:30;97687.63;;;25.52;59.95
28267;BME280;15525;45.568;5.448;2023-06-10T06:34:55;97681.88;;;25.64;59.88
28267;BME280;15525;45.568;5.448;2023-06-10T06:37:24;97694.84;;;25.70;59.72
28267;BME280;15525;45.568;5.448;2023-06-10T06:39:53;97693.25;;;25.66;59.22
28267;BME280;15525;45.568;5.448;2023-06-10T06:42:19;97704.03;;;25.85;58.88
28267;BME280;15525;45.568;5.448;2023-06-10T06:44:46;97689.72;;;25.98;58.51
28267;BME280;15525;45.568;5.448;2023-06-10T06:47:12;97697.72;;;26.17;58.09
28267;BME280;15525;45.568;5.448;2023-06-10T06:49:56;97699.47;;;26.39;58.62
28267;BME280;15525;45.568;5.448;2023-06-10T06:52:21;97702.03;;;26.62;57.80
28267;BME280;15525;45.568;5.448;2023-06-10T06:54:47;97712.78;;;26.37;57.89
28267;BME280;15525;45.568;5.448;2023-06-10T06:57:13;97687.47;;;26.11;58.22
28267;BME280;15525;45.568;5.448;2023-06-10T06:59:38;97693.00;;;26.18;58.09
28267;BME280;15525;45.568;5.448;2023-06-10T07:02:04;97696.34;;;26.41;57.81
28267;BME280;15525;45.568;5.448;2023-06-10T07:04:29;97699.00;;;26.77;56.93
28267;BME280;15525;45.568;5.448;2023-06-10T07:06:55;97699.72;;;26.67;57.20
28267;BME280;15525;45.568;5.448;2023-06-10T07:09:20;97698.63;;;26.82;56.87
28267;BME280;15525;45.568;5.448;2023-06-10T07:11:46;97687.69;;;26.89;56.46
28267;BME280;15525;45.568;5.448;2023-06-10T07:14:11;97702.44;;;27.28;55.97
28267;BME280;15525;45.568;5.448;2023-06-10T07:16:37;97693.16;;;27.61;55.35
28267;BME280;15525;45.568;5.448;2023-06-10T07:19:02;97662.81;;;27.40;55.14
28267;BME280;15525;45.568;5.448;2023-06-10T07:21:29;97704.16;;;27.61;55.25
28267;BME280;15525;45.568;5.448;2023-06-10T07:23:54;97705.81;;;27.86;54.59
28267;BME280;15525;45.568;5.448;2023-06-10T07:26:22;97705.41;;;27.84;54.57
28267;BME280;15525;45.568;5.448;2023-06-10T07:28:48;97701.91;;;28.05;54.13
28267;BME280;15525;45.568;5.448;2023-06-10T07:31:13;97705.84;;;28.07;54.05
28267;BME280;15525;45.568;5.448;2023-06-10T07:33:39;97696.44;;;28.26;53.74
28267;BME280;15525;45.568;5.448;2023-06-10T07:36:05;97702.75;;;28.51;52.94
28267;BME280;15525;45.568;5.448;2023-06-10T07:38:31;97702.75;;;28.51;52.92
28267;BME280;15525;45.568;5.448;2023-06-10T07:40:56;97698.44;;;28.57;52.74
28267;BME280;15525;45.568;5.448;2023-06-10T07:43:22;97703.16;;;28.42;52.23
28267;BME280;15525;45.568;5.448;2023-06-10T07:45:47;97694.50;;;28.58;52.06
28267;BME280;15525;45.568;5.448;2023-06-10T07:48:12;97706.25;;;28.83;51.68
28267;BME280;15525;45.568;5.448;2023-06-10T07:50:38;97699.19;;;28.89;51.08
28267;BME280;15525;45.568;5.448;2023-06-10T07:53:03;97704.16;;;29.40;50.19
28267;BME280;15525;45.568;5.448;2023-06-10T07:55:29;97704.06;;;29.68;49.68
28267;BME280;15525;45.568;5.448;2023-06-10T07:57:54;97695.75;;;30.36;48.76
28267;BME280;15525;45.568;5.448;2023-06-10T08:00:20;97697.88;;;30.66;48.02
28267;BME280;15525;45.568;5.448;2023-06-10T08:02:46;97697.06;;;30.69;47.58
28267;BME280;15525;45.568;5.448;2023-06-10T08:05:12;97708.25;;;30.51;47.72
28267;BME280;15525;45.568;5.448;2023-06-10T08:07:38;97692.22;;;30.32;47.75
28267;BME280;15525;45.568;5.448;2023-06-10T08:10:05;97692.53;;;29.83;48.93
28267;BME280;15525;45.568;5.448;2023-06-10T08:12:31;97695.84;;;29.50;49.37
28267;BME280;15525;45.568;5.448;2023-06-10T08:14:56;97691.63;;;29.25;50.06
28267;BME280;15525;45.568;5.448;2023-06-10T08:17:22;97692.44;;;29.11;50.03
28267;BME280;15525;45.568;5.448;2023-06-10T08:19:47;97690.00;;;29.31;49.52
28267;BME280;15525;45.568;5.448;2023-06-10T08:22:12;97701.09;;;29.06;50.01
28267;BME280;15525;45.568;5.448;2023-06-10T08:24:38;97699.97;;;28.79;51.04
28267;BME280;15525;45.568;5.448;2023-06-10T08:27:04;97694.88;;;28.67;50.66
28267;BME280;15525;45.568;5.448;2023-06-10T08:29:31;97700.75;;;28.69;50.54
28267;BME280;15525;45.568;5.448;2023-06-10T08:31:57;97692.53;;;28.48;50.87
28267;BME280;15525;45.568;5.448;2023-06-10T08:34:22;97698.81;;;28.63;50.56
28267;BME280;15525;45.568;5.448;2023-06-10T08:36:48;97697.63;;;28.71;50.23
28267;BME280;15525;45.568;5.448;2023-06-10T08:39:18;97700.41;;;28.42;49.76
28267;BME280;15525;45.568;5.448;2023-06-10T08:41:48;97698.44;;;28.47;49.84
28267;BME280;15525;45.568;5.448;2023-06-10T08:44:27;97683.00;;;28.91;50.05
28267;BME280;15525;45.568;5.448;2023-06-10T08:46:55;97695.66;;;28.75;50.00
28267;BME280;15525;45.568;5.448;2023-06-10T08:49:22;97707.47;;;28.79;49.88
28267;BME280;15525;45.568;5.448;2023-06-10T08:51:58;97685.00;;;28.84;49.26
28267;BME280;15525;45.568;5.448;2023-06-10T08:54:26;97697.94;;;29.25;49.49
28267;BME280;15525;45.568;5.448;2023-06-10T08:56:53;97705.38;;;29.28;48.77
28267;BME280;15525;45.568;5.448;2023-06-10T08:59:21;97697.25;;;28.44;49.46
28267;BME280;15525;45.568;5.448;2023-06-10T09:01:47;97694.44;;;28.05;50.16
28267;BME280;15525;45.568;5.448;2023-06-10T09:04:13;97702.72;;;28.02;50.09
28267;BME280;15525;45.568;5.448;2023-06-10T09:06:39;97701.97;;;28.51;49.60
28267;BME280;15525;45.568;5.448;2023-06-10T09:09:06;97708.25;;;28.65;48.37
28267;BME280;15525;45.568;5.448;2023-06-10T09:11:32;97692.38;;;29.29;47.33
28267;BME280;15525;45.568;5.448;2023-06-10T09:13:58;97678.66;;;30.52;45.32
28267;BME280;15525;45.568;5.448;2023-06-10T09:16:24;97698.63;;;31.10;44.49
28267;BME280;15525;45.568;5.448;2023-06-10T09:18:50;97692.50;;;31.29;44.46
28267;BME280;15525;45.568;5.448;2023-06-10T09:21:24;97678.81;;;30.78;43.96
28267;BME280;15525;45.568;5.448;2023-06-10T09:23:51;97688.88;;;30.58;44.71
28267;BME280;15525;45.568;5.448;2023-06-10T09:26:16;97697.22;;;30.95;44.92
28267;BME280;15525;45.568;5.448;2023-06-10T09:28:48;97702.75;;;30.95;45.10
28267;BME280;15525;45.568;5.448;2023-06-10T09:31:16;97671.94;;;31.30;44.28
28267;BME280;15525;45.568;5.448;2023-06-10T09:33:47;97679.63;;;32.06;43.01
28267;BME280;15525;45.568;5.448;2023-06-10T09:36:21;97695.13;;;32.26;42.79
28267;BME280;15525;45.568;5.448;2023-06-10T09:38:49;97699.84;;;32.79;41.66
28267;BME280;15525;45.568;5.448;2023-06-10T09:41:16;97692.38;;;32.26;41.92
28267;BME280;15525;45.568;5.448;2023-06-10T09:43:45;97689.03;;;31.22;41.22
28267;BME280;15525;45.568;5.448;2023-06-10T09:46:18;97704.50;;;31.16;40.30
28267;BME280;15525;45.568;5.448;2023-06-10T09:48:46;97696.84;;;31.30;42.22
28267;BME280;15525;45.568;5.448;2023-06-10T09:51:13;97695.16;;;31.03;42.20
28267;BME280;15525;45.568;5.448;2023-06-10T09:53:39;97674.94;;;30.69;42.00
28267;BME280;15525;45.568;5.448;2023-06-10T09:56:05;97686.59;;;30.90;42.71
28267;BME280;15525;45.568;5.448;2023-06-10T09:58:37;97691.41;;;31.23;41.86
28267;BME280;15525;45.568;5.448;2023-06-10T10:01:10;97691.28;;;31.30;40.81
28267;BME280;15525;45.568;5.448;2023-06-10T10:03:46;97694.13;;;31.27;42.18
28267;BME280;15525;45.568;5.448;2023-06-10T10:06:13;97690.38;;;31.07;42.52
28267;BME280;15525;45.568;5.448;2023-06-10T10:08:39;97687.47;;;30.84;43.47
28267;BME280;15525;45.568;5.448;2023-06-10T10:11:04;97674.28;;;30.51;43.96
28267;BME280;15525;45.568;5.448;2023-06-10T10:13:33;97694.53;;;30.41;43.98
28267;BME280;15525;45.568;5.448;2023-06-10T10:16:02;97678.19;;;30.06;44.27
28267;BME280;15525;45.568;5.448;2023-06-10T10:18:29;97676.06;;;29.69;45.20
28267;BME280;15525;45.568;5.448;2023-06-10T10:20:57;97692.91;;;29.89;45.08
28267;BME280;15525;45.568;5.448;2023-06-10T10:23:32;97689.34;;;29.92;44.71
28267;BME280;15525;45.568;5.448;2023-06-10T10:26:00;97681.41;;;30.01;45.12
28267;BME280;15525;45.568;5.448;2023-06-10T10:28:35;97683.09;;;30.39;44.21
28267;BME280;15525;45.568;5.448;2023-06-10T10:31:08;97694.06;;;30.49;43.96
28267;BME280;15525;45.568;5.448;2023-06-10T10:33:51;97690.03;;;31.01;44.73
28267;BME280;15525;45.568;5.448;2023-06-10T10:36:21;97688.00;;;31.05;43.57
28267;BME280;15525;45.568;5.448;2023-06-10T10:38:47;97685.59;;;31.07;43.86
28267;BME280;15525;45.568;5.448;2023-06-10T10:41:19;97685.09;;;31.19;42.54
28267;BME280;15525;45.568;5.448;2023-06-10T10:43:46;97676.78;;;31.19;43.54
28267;BME280;15525;45.568;5.448;2023-06-10T10:46:16;97685.91;;;31.16;41.97
28267;BME280;15525;45.568;5.448;2023-06-10T10:48:42;97688.50;;;31.34;42.81
28267;BME280;15525;45.568;5.448;2023-06-10T10:51:09;97682.41;;;31.46;42.19
28267;BME280;15525;45.568;5.448;2023-06-10T10:53:37;97685.69;;;31.00;42.95
28267;BME280;15525;45.568;5.448;2023-06-10T10:56:09;97683.06;;;31.27;43.38
28267;BME280;15525;45.568;5.448;2023-06-10T10:58:39;97666.75;;;31.66;41.45
28267;BME280;15525;45.568;5.448;2023-06-10T11:01:14;97682.81;;;31.74;41.08
28267;BME280;15525;45.568;5.448;2023-06-10T11:03:46;97676.50;;;32.04;40.56
28267;BME280;15525;45.568;5.448;2023-06-10T11:06:18;97682.41;;;33.01;38.64
28267;BME280;15525;45.568;5.448;2023-06-10T11:08:45;97682.84;;;33.19;38.67
28267;BME280;15525;45.568;5.448;2023-06-10T11:11:24;97668.19;;;32.04;38.73
28267;BME280;15525;45.568;5.448;2023-06-10T11:16:29;97663.38;;;33.78;37.54
28267;BME280;15525;45.568;5.448;2023-06-10T11:18:56;97661.81;;;33.96;36.69
28267;BME280;15525;45.568;5.448;2023-06-10T11:21:25;97655.22;;;33.12;36.75
28267;BME280;15525;45.568;5.448;2023-06-10T11:23:53;97651.78;;;33.63;37.55
28267;BME280;15525;45.568;5.448;2023-06-10T11:29:06;97661.13;;;33.53;35.60
28267;BME280;15525;45.568;5.448;2023-06-10T11:31:38;97665.81;;;32.75;36.87
28267;BME280;15525;45.568;5.448;2023-06-10T11:34:05;97655.69;;;32.65;36.70
28267;BME280;15525;45.568;5.448;2023-06-10T11:36:32;97659.91;;;32.96;36.71
28267;BME280;15525;45.568;5.448;2023-06-10T11:39:00;97652.06;;;33.33;35.79
28267;BME280;15525;45.568;5.448;2023-06-10T11:41:34;97638.09;;;33.72;35.19
28267;BME280;15525;45.568;5.448;2023-06-10T11:44:09;97655.41;;;33.80;35.41
28267;BME280;15525;45.568;5.448;2023-06-10T11:46:35;97605.91;;;34.71;34.64
28267;BME280;15525;45.568;5.448;2023-06-10T11:49:02;97648.59;;;34.80;35.37
28267;BME280;15525;45.568;5.448;2023-06-10T11:51:31;97647.38;;;34.01;36.83
28267;BME280;15525;45.568;5.448;2023-06-10T11:53:57;97619.75;;;33.94;36.44
28267;BME280;15525;45.568;5.448;2023-06-10T11:56:23;97641.66;;;33.92;37.80
28267;BME280;15525;45.568;5.448;2023-06-10T11:58:54;97633.31;;;34.24;35.91
28267;BME280;15525;45.568;5.448;2023-06-10T12:01:21;97621.28;;;33.79;37.26
28267;BME280;15525;45.568;5.448;2023-06-10T12:03:47;97617.06;;;34.07;36.97
28267;BME280;15525;45.568;5.448;2023-06-10T12:06:12;97632.72;;;34.49;36.75
28267;BME280;15525;45.568;5.448;2023-06-10T12:08:42;97630.38;;;34.47;35.53
28267;BME280;15525;45.568;5.448;2023-06-10T12:11:08;97617.16;;;33.87;37.06
28267;BME280;15525;45.568;5.448;2023-06-10T12:13:34;97618.66;;;33.72;37.27
28267;BME280;15525;45.568;5.448;2023-06-10T12:16:07;97615.59;;;33.31;37.49
28267;BME280;15525;45.568;5.448;2023-06-10T12:18:33;97614.88;;;33.08;38.13
28267;BME280;15525;45.568;5.448;2023-06-10T12:20:58;97607.13;;;33.38;38.08
28267;BME280;15525;45.568;5.448;2023-06-10T12:23:24;97610.09;;;34.63;36.95
28267;BME280;15525;45.568;5.448;2023-06-10T12:25:55;97605.38;;;35.04;34.99
28267;BME280;15525;45.568;5.448;2023-06-10T12:28:22;97595.72;;;34.64;36.86
28267;BME280;15525;45.568;5.448;2023-06-10T12:30:47;97591.13;;;34.29;36.88
28267;BME280;15525;45.568;5.448;2023-06-10T12:33:17;97593.00;;;33.84;37.26
28267;BME280;15525;45.568;5.448;2023-06-10T12:35:52;97595.78;;;34.16;36.68
28267;BME280;15525;45.568;5.448;2023-06-10T12:38:25;97597.25;;;34.97;35.60
28267;BME280;15525;45.568;5.448;2023-06-10T12:40:57;97590.50;;;36.02;35.76
28267;BME280;15525;45.568;5.448;2023-06-10T12:43:26;97583.63;;;36.41;33.60
28267;BME280;15525;45.568;5.448;2023-06-10T12:45:51;97596.06;;;36.74;33.90
28267;BME280;15525;45.568;5.448;2023-06-10T12:50:54;97588.47;;;35.90;31.82
28267;BME280;15525;45.568;5.448;2023-06-10T12:53:20;97581.38;;;35.77;32.70
28267;BME280;15525;45.568;5.448;2023-06-10T12:55:47;97591.34;;;36.37;32.97
28267;BME280;15525;45.568;5.448;2023-06-10T12:58:13;97564.84;;;36.88;32.35
28267;BME280;15525;45.568;5.448;2023-06-10T13:00:39;97576.78;;;36.54;32.12
28267;BME280;15525;45.568;5.448;2023-06-10T13:03:05;97584.13;;;36.27;32.04
28267;BME280;15525;45.568;5.448;2023-06-10T13:05:31;97578.44;;;35.93;32.24
28267;BME280;15525;45.568;5.448;2023-06-10T13:07:57;97574.31;;;34.93;33.08
28267;BME280;15525;45.568;5.448;2023-06-10T13:10:22;97571.41;;;34.97;33.10